sensor_id;sensor_type;location;lat;lon;timestamp;P1;durP1;ratioP1;P2;durP2;ratioP2
37891;SDS011;45797;47.466;9.486;2023-08-31T00:00:45;3.53;;;1.63;;
37891;SDS011;45797;47.466;9.486;2023-08-31T00:05:45;3.33;;;1.50;;
37891;SDS011;45797;47.466;9.486;2023-08-31T00:10:46;3.03;;;1.50;;
37891;SDS011;45797;47.466;9.486;2023-08-31T00:15:57;4.20;;;1.55;;
37891;SDS011;45797;47.466;9.486;2023-08-31T00:20:58;3.90;;;1.80;;
37891;SDS011;45797;47.466;9.486;2023-08-31T00:25:58;2.63;;;1.38;;
37891;SDS011;45797;47.466;9.486;2023-08-31T00:31:00;2.45;;;1.30;;
37891;SDS011;45797;47.466;9.486;2023-08-31T00:41:08;3.67;;;1.42;;
37891;SDS011;45797;47.466;9.486;2023-08-31T00:46:10;2.75;;;1.40;;
37891;SDS011;45797;47.466;9.486;2023-08-31T00:51:11;3.20;;;1.63;;
37891;SDS011;45797;47.466;9.486;2023-08-31T00:56:11;3.35;;;1.40;;
37891;SDS011;45797;47.466;9.486;2023-08-31T01:01:27;2.78;;;1.42;;
37891;SDS011;45797;47.466;9.486;2023-08-31T01:12:18;3.30;;;1.20;;
37891;SDS011;45797;47.466;9.486;2023-08-31T01:17:31;3.03;;;1.70;;
37891;SDS011;45797;47.466;9.486;2023-08-31T01:22:38;2.78;;;1.25;;
37891;SDS011;45797;47.466;9.486;2023-08-31T01:27:58;3.10;;;1.48;;
37891;SDS011;45797;47.466;9.486;2023-08-31T01:32:59;2.83;;;1.40;;
37891;SDS011;45797;47.466;9.486;2023-08-31T01:38:01;3.40;;;1.33;;
37891;SDS011;45797;47.466;9.486;2023-08-31T01:43:04;3.15;;;1.42;;
37891;SDS011;45797;47.466;9.486;2023-08-31T01:48:08;3.58;;;1.58;;
37891;SDS011;45797;47.466;9.486;2023-08-31T01:53:10;2.08;;;1.20;;
37891;SDS011;45797;47.466;9.486;2023-08-31T01:58:20;5.00;;;1.80;;
37891;SDS011;45797;47.466;9.486;2023-08-31T02:03:23;3.63;;;1.63;;
37891;SDS011;45797;47.466;9.486;2023-08-31T02:08:23;3.03;;;1.50;;
37891;SDS011;45797;47.466;9.486;2023-08-31T02:13:26;2.55;;;1.42;;
37891;SDS011;45797;47.466;9.486;2023-08-31T02:18:26;3.22;;;1.60;;
37891;SDS011;45797;47.466;9.486;2023-08-31T02:23:28;3.28;;;1.35;;
37891;SDS011;45797;47.466;9.486;2023-08-31T02:28:28;3.10;;;1.42;;
37891;SDS011;45797;47.466;9.486;2023-08-31T02:33:30;3.75;;;1.50;;
37891;SDS011;45797;47.466;9.486;2023-08-31T02:38:31;3.10;;;1.67;;
37891;SDS011;45797;47.466;9.486;2023-08-31T02:43:34;3.78;;;1.63;;
37891;SDS011;45797;47.466;9.486;2023-08-31T02:48:35;3.38;;;1.50;;
37891;SDS011;45797;47.466;9.486;2023-08-31T02:53:36;3.75;;;1.80;;
37891;SDS011;45797;47.466;9.486;2023-08-31T02:58:38;3.08;;;1.60;;
37891;SDS011;45797;47.466;9.486;2023-08-31T03:03:38;4.05;;;1.63;;
37891;SDS011;45797;47.466;9.486;2023-08-31T03:08:39;3.45;;;1.60;;
37891;SDS011;45797;47.466;9.486;2023-08-31T03:13:39;2.97;;;1.45;;
37891;SDS011;45797;47.466;9.486;2023-08-31T03:18:41;2.85;;;1.63;;
37891;SDS011;45797;47.466;9.486;2023-08-31T03:23:51;3.83;;;1.55;;
37891;SDS011;45797;47.466;9.486;2023-08-31T03:28:51;3.00;;;1.70;;
37891;SDS011;45797;47.466;9.486;2023-08-31T03:33:52;3.30;;;1.65;;
37891;SDS011;45797;47.466;9.486;2023-08-31T03:38:53;3.78;;;1.77;;
37891;SDS011;45797;47.466;9.486;2023-08-31T03:43:54;5.05;;;1.70;;
37891;SDS011;45797;47.466;9.486;2023-08-31T03:48:56;3.30;;;1.50;;
37891;SDS011;45797;47.466;9.486;2023-08-31T03:59:08;3.65;;;1.52;;
37891;SDS011;45797;47.466;9.486;2023-08-31T04:04:08;2.22;;;1.20;;
37891;SDS011;45797;47.466;9.486;2023-08-31T04:09:11;3.25;;;1.50;;
37891;SDS011;45797;47.466;9.486;2023-08-31T04:14:14;4.25;;;1.67;;
37891;SDS011;45797;47.466;9.486;2023-08-31T04:19:14;3.03;;;1.67;;
37891;SDS011;45797;47.466;9.486;2023-08-31T04:24:14;2.92;;;1.50;;
37891;SDS011;45797;47.466;9.486;2023-08-31T04:29:16;4.53;;;1.40;;
37891;SDS011;45797;47.466;9.486;2023-08-31T04:34:17;5.40;;;1.67;;
37891;SDS011;45797;47.466;9.486;2023-08-31T04:39:18;4.72;;;1.63;;
37891;SDS011;45797;47.466;9.486;2023-08-31T04:44:19;2.97;;;1.45;;
37891;SDS011;45797;47.466;9.486;2023-08-31T04:54:29;2.83;;;1.30;;
37891;SDS011;45797;47.466;9.486;2023-08-31T04:59:30;2.92;;;1.55;;
37891;SDS011;45797;47.466;9.486;2023-08-31T05:04:32;3.47;;;1.67;;
37891;SDS011;45797;47.466;9.486;2023-08-31T05:09:34;3.42;;;1.35;;
37891;SDS011;45797;47.466;9.486;2023-08-31T05:14:34;4.82;;;1.55;;
37891;SDS011;45797;47.466;9.486;2023-08-31T05:24:41;2.83;;;1.30;;
37891;SDS011;45797;47.466;9.486;2023-08-31T05:29:41;2.65;;;1.13;;
37891;SDS011;45797;47.466;9.486;2023-08-31T05:34:42;4.18;;;1.50;;
37891;SDS011;45797;47.466;9.486;2023-08-31T05:39:42;3.53;;;1.38;;
37891;SDS011;45797;47.466;9.486;2023-08-31T05:44:49;2.17;;;1.15;;
37891;SDS011;45797;47.466;9.486;2023-08-31T05:49:50;2.50;;;0.98;;
37891;SDS011;45797;47.466;9.486;2023-08-31T05:54:51;2.20;;;0.98;;
37891;SDS011;45797;47.466;9.486;2023-08-31T05:59:51;2.22;;;1.02;;
37891;SDS011;45797;47.466;9.486;2023-08-31T06:04:52;3.28;;;1.10;;
37891;SDS011;45797;47.466;9.486;2023-08-31T06:09:52;1.90;;;1.00;;
37891;SDS011;45797;47.466;9.486;2023-08-31T06:14:53;2.50;;;1.20;;
37891;SDS011;45797;47.466;9.486;2023-08-31T06:25:14;2.80;;;1.23;;
37891;SDS011;45797;47.466;9.486;2023-08-31T06:35:35;2.40;;;1.10;;
37891;SDS011;45797;47.466;9.486;2023-08-31T06:40:37;2.83;;;1.20;;
37891;SDS011;45797;47.466;9.486;2023-08-31T06:45:40;2.50;;;1.30;;
37891;SDS011;45797;47.466;9.486;2023-08-31T06:50:42;3.60;;;1.20;;
37891;SDS011;45797;47.466;9.486;2023-08-31T06:55:44;3.90;;;1.30;;
37891;SDS011;45797;47.466;9.486;2023-08-31T07:00:44;2.72;;;1.10;;
37891;SDS011;45797;47.466;9.486;2023-08-31T07:10:52;2.88;;;1.10;;
37891;SDS011;45797;47.466;9.486;2023-08-31T07:15:52;2.60;;;1.10;;
37891;SDS011;45797;47.466;9.486;2023-08-31T07:20:52;1.77;;;0.82;;
37891;SDS011;45797;47.466;9.486;2023-08-31T07:25:57;1.70;;;0.80;;
37891;SDS011;45797;47.466;9.486;2023-08-31T07:31:06;2.03;;;0.90;;
37891;SDS011;45797;47.466;9.486;2023-08-31T07:36:15;2.40;;;1.00;;
37891;SDS011;45797;47.466;9.486;2023-08-31T07:41:16;2.55;;;1.00;;
37891;SDS011;45797;47.466;9.486;2023-08-31T07:46:24;2.10;;;1.00;;
37891;SDS011;45797;47.466;9.486;2023-08-31T07:51:26;2.17;;;0.93;;
37891;SDS011;45797;47.466;9.486;2023-08-31T07:56:33;2.80;;;1.00;;
37891;SDS011;45797;47.466;9.486;2023-08-31T08:06:43;2.78;;;1.17;;
37891;SDS011;45797;47.466;9.486;2023-08-31T08:11:45;2.08;;;1.13;;
37891;SDS011;45797;47.466;9.486;2023-08-31T08:16:45;3.05;;;1.33;;
37891;SDS011;45797;47.466;9.486;2023-08-31T08:21:46;3.88;;;1.30;;
37891;SDS011;45797;47.466;9.486;2023-08-31T08:26:48;2.60;;;1.38;;
37891;SDS011;45797;47.466;9.486;2023-08-31T08:31:55;2.63;;;1.40;;
37891;SDS011;45797;47.466;9.486;2023-08-31T08:42:01;3.17;;;1.55;;
37891;SDS011;45797;47.466;9.486;2023-08-31T08:47:06;4.00;;;1.85;;
37891;SDS011;45797;47.466;9.486;2023-08-31T08:52:09;3.30;;;1.35;;
37891;SDS011;45797;47.466;9.486;2023-08-31T08:57:23;2.70;;;1.15;;
37891;SDS011;45797;47.466;9.486;2023-08-31T09:02:40;3.00;;;1.30;;
37891;SDS011;45797;47.466;9.486;2023-08-31T09:13:11;2.40;;;1.13;;
37891;SDS011;45797;47.466;9.486;2023-08-31T09:18:32;3.15;;;1.40;;
37891;SDS011;45797;47.466;9.486;2023-08-31T09:23:36;2.22;;;1.25;;
37891;SDS011;45797;47.466;9.486;2023-08-31T09:28:44;2.03;;;1.00;;
37891;SDS011;45797;47.466;9.486;2023-08-31T09:38:57;2.50;;;1.20;;
37891;SDS011;45797;47.466;9.486;2023-08-31T09:49:18;3.05;;;1.48;;
37891;SDS011;45797;47.466;9.486;2023-08-31T09:54:22;5.28;;;1.42;;
37891;SDS011;45797;47.466;9.486;2023-08-31T09:59:23;3.10;;;1.27;;
37891;SDS011;45797;47.466;9.486;2023-08-31T10:04:24;2.70;;;1.42;;
37891;SDS011;45797;47.466;9.486;2023-08-31T10:09:31;3.13;;;1.30;;
37891;SDS011;45797;47.466;9.486;2023-08-31T10:19:38;3.35;;;1.52;;
37891;SDS011;45797;47.466;9.486;2023-08-31T10:35:26;3.38;;;1.38;;
37891;SDS011;45797;47.466;9.486;2023-08-31T10:40:42;2.25;;;1.33;;
37891;SDS011;45797;47.466;9.486;2023-08-31T10:56:30;2.88;;;1.33;;
37891;SDS011;45797;47.466;9.486;2023-08-31T11:12:14;2.58;;;1.27;;
37891;SDS011;45797;47.466;9.486;2023-08-31T11:17:21;3.72;;;1.20;;
37891;SDS011;45797;47.466;9.486;2023-08-31T11:22:27;3.10;;;1.15;;
37891;SDS011;45797;47.466;9.486;2023-08-31T11:27:28;1.88;;;0.88;;
37891;SDS011;45797;47.466;9.486;2023-08-31T11:32:29;2.70;;;1.10;;
37891;SDS011;45797;47.466;9.486;2023-08-31T11:37:30;2.53;;;0.88;;
37891;SDS011;45797;47.466;9.486;2023-08-31T11:42:31;3.45;;;1.20;;
37891;SDS011;45797;47.466;9.486;2023-08-31T11:52:45;3.10;;;1.20;;
37891;SDS011;45797;47.466;9.486;2023-08-31T11:57:52;2.97;;;1.30;;
37891;SDS011;45797;47.466;9.486;2023-08-31T12:02:56;2.78;;;1.20;;
37891;SDS011;45797;47.466;9.486;2023-08-31T12:13:10;2.90;;;1.40;;
37891;SDS011;45797;47.466;9.486;2023-08-31T12:18:14;4.72;;;1.27;;
37891;SDS011;45797;47.466;9.486;2023-08-31T12:23:14;3.45;;;1.13;;
37891;SDS011;45797;47.466;9.486;2023-08-31T12:28:19;5.32;;;1.10;;
37891;SDS011;45797;47.466;9.486;2023-08-31T12:33:21;3.00;;;1.48;;
37891;SDS011;45797;47.466;9.486;2023-08-31T12:38:24;5.13;;;1.30;;
37891;SDS011;45797;47.466;9.486;2023-08-31T12:43:25;3.20;;;1.20;;
37891;SDS011;45797;47.466;9.486;2023-08-31T12:48:25;3.53;;;1.60;;
37891;SDS011;45797;47.466;9.486;2023-08-31T12:53:26;3.20;;;1.20;;
37891;SDS011;45797;47.466;9.486;2023-08-31T12:58:33;3.00;;;1.20;;
37891;SDS011;45797;47.466;9.486;2023-08-31T13:03:34;3.30;;;1.40;;
37891;SDS011;45797;47.466;9.486;2023-08-31T13:08:34;3.00;;;1.45;;
37891;SDS011;45797;47.466;9.486;2023-08-31T13:13:34;3.05;;;1.50;;
37891;SDS011;45797;47.466;9.486;2023-08-31T13:23:40;3.55;;;1.77;;
37891;SDS011;45797;47.466;9.486;2023-08-31T13:28:43;4.03;;;1.40;;
37891;SDS011;45797;47.466;9.486;2023-08-31T13:33:45;5.70;;;1.38;;
37891;SDS011;45797;47.466;9.486;2023-08-31T13:38:46;4.00;;;1.35;;
37891;SDS011;45797;47.466;9.486;2023-08-31T13:43:48;4.30;;;1.35;;
37891;SDS011;45797;47.466;9.486;2023-08-31T13:48:49;2.70;;;1.58;;
37891;SDS011;45797;47.466;9.486;2023-08-31T13:54:01;3.60;;;1.55;;
37891;SDS011;45797;47.466;9.486;2023-08-31T13:59:04;6.03;;;1.80;;
37891;SDS011;45797;47.466;9.486;2023-08-31T14:04:05;3.10;;;1.30;;
37891;SDS011;45797;47.466;9.486;2023-08-31T14:09:06;4.68;;;1.88;;
37891;SDS011;45797;47.466;9.486;2023-08-31T14:14:08;4.18;;;1.60;;
37891;SDS011;45797;47.466;9.486;2023-08-31T14:19:10;4.18;;;1.30;;
37891;SDS011;45797;47.466;9.486;2023-08-31T14:24:12;4.15;;;1.45;;
37891;SDS011;45797;47.466;9.486;2023-08-31T14:29:12;5.60;;;1.90;;
37891;SDS011;45797;47.466;9.486;2023-08-31T14:34:13;2.67;;;1.45;;
37891;SDS011;45797;47.466;9.486;2023-08-31T14:39:13;2.50;;;1.30;;
37891;SDS011;45797;47.466;9.486;2023-08-31T14:44:15;2.40;;;1.38;;
37891;SDS011;45797;47.466;9.486;2023-08-31T14:49:16;4.20;;;1.52;;
37891;SDS011;45797;47.466;9.486;2023-08-31T14:54:16;3.08;;;1.45;;
37891;SDS011;45797;47.466;9.486;2023-08-31T14:59:16;3.22;;;1.85;;
37891;SDS011;45797;47.466;9.486;2023-08-31T15:04:16;3.50;;;1.70;;
37891;SDS011;45797;47.466;9.486;2023-08-31T15:09:19;4.28;;;1.73;;
37891;SDS011;45797;47.466;9.486;2023-08-31T15:14:20;2.67;;;1.70;;
37891;SDS011;45797;47.466;9.486;2023-08-31T15:19:22;3.47;;;1.65;;
37891;SDS011;45797;47.466;9.486;2023-08-31T15:24:22;3.50;;;1.83;;
37891;SDS011;45797;47.466;9.486;2023-08-31T15:29:24;3.50;;;2.00;;
37891;SDS011;45797;47.466;9.486;2023-08-31T15:34:24;3.50;;;1.50;;
37891;SDS011;45797;47.466;9.486;2023-08-31T15:39:25;4.40;;;1.70;;
37891;SDS011;45797;47.466;9.486;2023-08-31T15:44:25;4.15;;;1.77;;
37891;SDS011;45797;47.466;9.486;2023-08-31T15:49:25;4.18;;;1.80;;
37891;SDS011;45797;47.466;9.486;2023-08-31T15:54:26;3.60;;;1.63;;
37891;SDS011;45797;47.466;9.486;2023-08-31T15:59:29;3.17;;;1.63;;
37891;SDS011;45797;47.466;9.486;2023-08-31T16:04:29;3.50;;;1.75;;
37891;SDS011;45797;47.466;9.486;2023-08-31T16:09:30;3.15;;;1.50;;
37891;SDS011;45797;47.466;9.486;2023-08-31T16:14:34;3.28;;;1.70;;
37891;SDS011;45797;47.466;9.486;2023-08-31T16:24:41;6.32;;;1.50;;
37891;SDS011;45797;47.466;9.486;2023-08-31T16:29:42;3.80;;;1.60;;
37891;SDS011;45797;47.466;9.486;2023-08-31T16:34:44;3.17;;;1.70;;
37891;SDS011;45797;47.466;9.486;2023-08-31T16:39:46;4.97;;;2.08;;
37891;SDS011;45797;47.466;9.486;2023-08-31T16:49:49;3.50;;;1.75;;
37891;SDS011;45797;47.466;9.486;2023-08-31T16:54:51;4.97;;;2.03;;
37891;SDS011;45797;47.466;9.486;2023-08-31T16:59:53;4.28;;;2.08;;
37891;SDS011;45797;47.466;9.486;2023-08-31T17:04:55;3.28;;;1.45;;
37891;SDS011;45797;47.466;9.486;2023-08-31T17:09:58;3.20;;;1.50;;
37891;SDS011;45797;47.466;9.486;2023-08-31T17:15:00;4.38;;;1.83;;
37891;SDS011;45797;47.466;9.486;2023-08-31T17:20:01;4.47;;;1.60;;
37891;SDS011;45797;47.466;9.486;2023-08-31T17:25:05;3.03;;;1.58;;
37891;SDS011;45797;47.466;9.486;2023-08-31T17:30:07;3.50;;;1.70;;
37891;SDS011;45797;47.466;9.486;2023-08-31T17:35:08;4.07;;;1.65;;
37891;SDS011;45797;47.466;9.486;2023-08-31T17:40:09;3.47;;;1.40;;
37891;SDS011;45797;47.466;9.486;2023-08-31T17:45:09;4.22;;;1.60;;
37891;SDS011;45797;47.466;9.486;2023-08-31T17:50:10;4.15;;;1.40;;
37891;SDS011;45797;47.466;9.486;2023-08-31T17:55:10;4.45;;;1.70;;
37891;SDS011;45797;47.466;9.486;2023-08-31T18:00:10;4.72;;;1.85;;
37891;SDS011;45797;47.466;9.486;2023-08-31T18:05:13;8.77;;;2.00;;
37891;SDS011;45797;47.466;9.486;2023-08-31T18:10:15;5.40;;;1.80;;
37891;SDS011;45797;47.466;9.486;2023-08-31T18:15:16;2.92;;;1.50;;
37891;SDS011;45797;47.466;9.486;2023-08-31T18:20:17;5.35;;;1.60;;
37891;SDS011;45797;47.466;9.486;2023-08-31T18:25:23;4.22;;;1.50;;
37891;SDS011;45797;47.466;9.486;2023-08-31T18:30:25;2.72;;;1.35;;
37891;SDS011;45797;47.466;9.486;2023-08-31T18:35:25;3.78;;;1.80;;
37891;SDS011;45797;47.466;9.486;2023-08-31T18:40:34;3.13;;;1.38;;
37891;SDS011;45797;47.466;9.486;2023-08-31T18:45:41;3.85;;;1.75;;
37891;SDS011;45797;47.466;9.486;2023-08-31T18:50:45;2.97;;;1.40;;
37891;SDS011;45797;47.466;9.486;2023-08-31T18:55:46;3.47;;;1.30;;
37891;SDS011;45797;47.466;9.486;2023-08-31T19:00:46;4.57;;;1.67;;
37891;SDS011;45797;47.466;9.486;2023-08-31T19:05:47;3.17;;;1.40;;
37891;SDS011;45797;47.466;9.486;2023-08-31T19:10:51;4.28;;;1.60;;
37891;SDS011;45797;47.466;9.486;2023-08-31T19:15:53;3.25;;;1.60;;
37891;SDS011;45797;47.466;9.486;2023-08-31T19:20:58;3.55;;;1.70;;
37891;SDS011;45797;47.466;9.486;2023-08-31T19:26:01;3.00;;;1.70;;
37891;SDS011;45797;47.466;9.486;2023-08-31T19:31:06;3.55;;;1.63;;
37891;SDS011;45797;47.466;9.486;2023-08-31T19:36:06;4.63;;;1.83;;
37891;SDS011;45797;47.466;9.486;2023-08-31T19:41:06;3.08;;;1.55;;
37891;SDS011;45797;47.466;9.486;2023-08-31T19:46:10;3.63;;;1.40;;
37891;SDS011;45797;47.466;9.486;2023-08-31T19:51:13;3.40;;;1.70;;
37891;SDS011;45797;47.466;9.486;2023-08-31T19:56:15;3.28;;;1.73;;
37891;SDS011;45797;47.466;9.486;2023-08-31T20:01:18;3.90;;;1.65;;
37891;SDS011;45797;47.466;9.486;2023-08-31T20:06:18;4.38;;;1.50;;
37891;SDS011;45797;47.466;9.486;2023-08-31T20:11:20;3.03;;;1.70;;
37891;SDS011;45797;47.466;9.486;2023-08-31T20:16:21;2.65;;;1.50;;
37891;SDS011;45797;47.466;9.486;2023-08-31T20:21:26;3.33;;;1.60;;
37891;SDS011;45797;47.466;9.486;2023-08-31T20:26:27;3.63;;;1.50;;
37891;SDS011;45797;47.466;9.486;2023-08-31T20:31:28;4.20;;;1.60;;
37891;SDS011;45797;47.466;9.486;2023-08-31T20:36:30;5.30;;;2.30;;
37891;SDS011;45797;47.466;9.486;2023-08-31T20:41:32;3.13;;;1.52;;
37891;SDS011;45797;47.466;9.486;2023-08-31T20:46:36;2.83;;;1.60;;
37891;SDS011;45797;47.466;9.486;2023-08-31T20:51:37;3.80;;;2.00;;
37891;SDS011;45797;47.466;9.486;2023-08-31T20:56:40;4.38;;;1.70;;
37891;SDS011;45797;47.466;9.486;2023-08-31T21:01:40;4.18;;;1.60;;
37891;SDS011;45797;47.466;9.486;2023-08-31T21:06:41;2.90;;;1.70;;
37891;SDS011;45797;47.466;9.486;2023-08-31T21:11:44;3.63;;;1.70;;
37891;SDS011;45797;47.466;9.486;2023-08-31T21:16:45;4.72;;;1.92;;
37891;SDS011;45797;47.466;9.486;2023-08-31T21:26:50;3.63;;;1.80;;
37891;SDS011;45797;47.466;9.486;2023-08-31T21:31:50;3.20;;;1.75;;
37891;SDS011;45797;47.466;9.486;2023-08-31T21:36:51;3.70;;;1.73;;
37891;SDS011;45797;47.466;9.486;2023-08-31T21:41:51;3.08;;;1.60;;
37891;SDS011;45797;47.466;9.486;2023-08-31T21:46:53;3.08;;;1.80;;
37891;SDS011;45797;47.466;9.486;2023-08-31T21:56:59;5.90;;;1.60;;
37891;SDS011;45797;47.466;9.486;2023-08-31T22:02:08;3.08;;;1.52;;
37891;SDS011;45797;47.466;9.486;2023-08-31T22:07:08;3.03;;;1.58;;
37891;SDS011;45797;47.466;9.486;2023-08-31T22:12:09;3.30;;;1.60;;
37891;SDS011;45797;47.466;9.486;2023-08-31T22:17:09;3.05;;;1.55;;
37891;SDS011;45797;47.466;9.486;2023-08-31T22:22:09;3.88;;;1.80;;
37891;SDS011;45797;47.466;9.486;2023-08-31T22:27:10;3.92;;;2.03;;
37891;SDS011;45797;47.466;9.486;2023-08-31T22:32:14;5.20;;;1.70;;
37891;SDS011;45797;47.466;9.486;2023-08-31T22:37:21;3.20;;;1.50;;
37891;SDS011;45797;47.466;9.486;2023-08-31T22:42:22;4.68;;;1.77;;
37891;SDS011;45797;47.466;9.486;2023-08-31T22:47:24;3.17;;;1.52;;
37891;SDS011;45797;47.466;9.486;2023-08-31T22:52:24;4.30;;;1.60;;
37891;SDS011;45797;47.466;9.486;2023-08-31T22:57:24;3.15;;;1.50;;
37891;SDS011;45797;47.466;9.486;2023-08-31T23:02:27;3.80;;;1.50;;
37891;SDS011;45797;47.466;9.486;2023-08-31T23:07:28;3.22;;;1.50;;
37891;SDS011;45797;47.466;9.486;2023-08-31T23:12:29;2.78;;;1.40;;
37891;SDS011;45797;47.466;9.486;2023-08-31T23:17:29;4.25;;;1.75;;
37891;SDS011;45797;47.466;9.486;2023-08-31T23:22:30;4.05;;;1.50;;
37891;SDS011;45797;47.466;9.486;2023-08-31T23:27:31;4.13;;;1.67;;
37891;SDS011;45797;47.466;9.486;2023-08-31T23:32:32;3.75;;;1.90;;
37891;SDS011;45797;47.466;9.486;2023-08-31T23:37:32;3.40;;;1.70;;
37891;SDS011;45797;47.466;9.486;2023-08-31T23:42:34;2.85;;;1.40;;
37891;SDS011;45797;47.466;9.486;2023-08-31T23:47:36;3.40;;;1.48;;
37891;SDS011;45797;47.466;9.486;2023-08-31T23:52:36;3.83;;;1.40;;
37891;SDS011;45797;47.466;9.486;2023-08-31T23:57:37;3.35;;;1.30;;
